Time;durP1;ratioP1;P1;durP2;ratioP2;P2;SDS_P1;SDS_P2;PMS_P1;PMS_P2;Temp;Humidity;BMP_temperature;BMP_pressure;BME280_temperature;BME280_humidity;BME280_pressure;Samples;Min_cycle;Max_cycle;Signal;HPM_P1;HPM_P2
2022/12/03 00:50:33;;;;;;;11.28;4.28;;;;;;;0.43;64.07;101863.57;1823198;78;28607;-51
2022/12/03 00:53:03;;;;;;;10.98;3.90;;;;;;;0.29;64.14;101863.95;1790706;80;21118;-53
2022/12/03 00:55:32;;;;;;;10.43;3.80;;;;;;;0.24;64.52;101857.98;1794173;80;21615;-52
2022/12/03 00:58:02;;;;;;;10.10;3.98;;;;;;;0.21;64.48;101868.95;1822826;78;21086;-53
2022/12/03 01:00:32;;;;;;;7.87;4.03;;;;;;;0.18;64.25;101860.20;1822905;79;21149;-52
2022/12/03 01:03:02;;;;;;;9.20;3.70;;;;;;;0.15;64.59;101869.34;1823070;79;21086;-52
2022/12/03 01:05:32;;;;;;;9.10;3.55;;;;;;;0.16;64.72;101867.52;1822845;79;21146;-52
2022/12/03 01:08:01;;;;;;;7.72;3.83;;;;;;;0.16;64.75;101865.68;1823154;79;21513;-51
2022/12/03 01:10:32;;;;;;;9.70;3.77;;;;;;;0.18;64.65;101869.15;1823053;79;21213;-52
2022/12/03 01:13:03;;;;;;;7.67;3.70;;;;;;;0.15;64.62;101863.95;1822846;78;21094;-52
2022/12/03 01:15:32;;;;;;;8.13;3.45;;;;;;;0.11;64.75;101863.75;1822785;79;21074;-52
2022/12/03 01:18:01;;;;;;;8.03;2.87;;;;;;;0.12;64.68;101859.23;1822770;78;21133;-52
2022/12/03 01:20:31;;;;;;;9.88;3.77;;;;;;;0.07;64.71;101861.34;1823006;79;21118;-52
2022/12/03 01:23:02;;;;;;;7.17;3.33;;;;;;;0.06;64.87;101865.87;1822912;78;21212;-52
2022/12/03 01:25:31;;;;;;;7.47;3.12;;;;;;;0.06;64.85;101867.21;1822982;78;21245;-52
2022/12/03 01:28:00;;;;;;;8.53;4.00;;;;;;;0.06;64.92;101867.21;1795527;79;21133;-53
2022/12/03 01:32:15;;;;;;;6.53;3.25;;;;;;;0.05;64.96;101868.17;1822938;78;21098;-53
2022/12/03 01:33:01;;;;;;;8.05;3.52;;;;;;;0.07;65.01;101872.12;1819337;79;21095;-52
2022/12/03 01:35:33;;;;;;;8.43;3.40;;;;;;;0.05;65.13;101866.83;1822775;78;21098;-52
2022/12/03 01:38:02;;;;;;;7.65;3.33;;;;;;;0.06;65.28;101871.25;1822734;79;21558;-53
2022/12/03 01:40:32;;;;;;;7.12;3.40;;;;;;;0.09;65.39;101877.80;1822743;78;21114;-51
2022/12/03 01:43:02;;;;;;;8.78;3.02;;;;;;;0.09;65.23;101872.89;1796450;79;21145;-52
2022/12/03 01:45:31;;;;;;;6.85;3.02;;;;;;;0.07;65.12;101877.51;1822833;79;21114;-52
2022/12/03 01:48:01;;;;;;;8.37;3.13;;;;;;;0.04;65.12;101871.83;1822972;79;21134;-51
2022/12/03 01:50:31;;;;;;;6.20;3.08;;;;;;;0.04;65.27;101877.22;1822405;79;21097;-51
2022/12/03 01:53:01;;;;;;;5.75;2.60;;;;;;;0.05;65.41;101870.87;1795361;79;21098;-52
2022/12/03 01:55:31;;;;;;;8.20;3.55;;;;;;;0.07;65.36;101879.73;1822305;78;21133;-51
2022/12/03 01:58:01;;;;;;;7.17;3.30;;;;;;;0.08;65.40;101867.98;1822378;79;21126;-52
2022/12/03 02:00:31;;;;;;;7.40;3.20;;;;;;;0.10;65.48;101874.63;1707748;84;21571;-52
2022/12/03 02:03:05;;;;;;;7.97;3.20;;;;;;;0.06;65.49;101881.16;1707513;84;21173;-50
2022/12/03 02:05:36;;;;;;;8.48;3.22;;;;;;;0.08;65.72;101879.24;1707484;84;21153;-52
2022/12/03 02:08:31;;;;;;;9.43;3.15;;;;;;;0.08;65.80;101879.24;1657096;85;21224;-52
2022/12/03 02:11:09;;;;;;;9.50;3.02;;;;;;;0.07;65.73;101883.77;1684183;84;21202;-52
2022/12/03 02:13:43;;;;;;;6.90;3.40;;;;;;;0.07;65.71;101877.03;1829985;77;22086;-52
2022/12/03 02:16:14;;;;;;;6.92;3.27;;;;;;;0.02;65.74;101880.97;1788653;79;21072;-51
2022/12/03 02:18:44;;;;;;;8.13;3.70;;;;;;;-0.01;65.87;101887.37;1788701;80;21578;-52
2022/12/03 02:21:31;;;;;;;7.90;3.33;;;;;;;-0.03;65.83;101890.64;1788895;80;21083;-53
2022/12/03 02:24:43;;;;;;;9.50;3.55;;;;;;;-0.05;65.98;101893.91;1769142;80;21131;-53
2022/12/03 02:27:12;;;;;;;8.75;3.77;;;;;;;-0.05;66.14;101889.39;1788610;80;21130;-52
2022/12/03 02:29:41;;;;;;;9.08;3.70;;;;;;;-0.03;66.28;101890.64;1788551;80;21118;-51
2022/12/03 02:32:11;;;;;;;8.80;3.40;;;;;;;-0.01;66.11;101892.77;1788780;80;21153;-51
2022/12/03 02:34:45;;;;;;;6.80;3.12;;;;;;;-0.01;66.22;101893.63;1788585;80;21115;-51
2022/12/03 02:37:19;;;;;;;6.95;3.50;;;;;;;0.01;66.32;101893.58;1788608;80;21122;-51
2022/12/03 02:39:55;;;;;;;7.25;3.05;;;;;;;0.01;66.32;101898.97;1788739;80;21099;-52
2022/12/03 02:42:34;;;;;;;6.50;3.37;;;;;;;-0.01;66.28;101897.67;1769194;80;21107;-54
2022/12/03 02:45:29;;;;;;;8.45;3.77;;;;;;;-0.01;66.13;101894.98;1768858;80;21158;-52
2022/12/03 02:48:12;;;;;;;6.60;3.35;;;;;;;-0.04;65.87;101899.69;1794626;80;21146;-52
2022/12/03 02:50:45;;;;;;;7.70;3.55;;;;;;;-0.05;66.11;101900.65;1744545;80;21363;-51
2022/12/03 02:53:20;;;;;;;7.45;3.42;;;;;;;-0.04;66.24;101899.69;1788374;79;21170;-53
2022/12/03 02:55:49;;;;;;;8.85;3.67;;;;;;;-0.07;66.14;101901.22;1788768;80;21210;-52
2022/12/03 02:58:19;;;;;;;8.55;3.20;;;;;;;-0.09;66.25;101901.80;1768993;80;21652;-51
2022/12/03 03:00:48;;;;;;;7.90;3.52;;;;;;;-0.12;66.26;101902.84;1788378;80;21170;-51
2022/12/03 03:03:18;;;;;;;6.90;3.40;;;;;;;-0.11;66.50;101903.72;1768937;80;21177;-52
2022/12/03 03:05:47;;;;;;;7.80;3.30;;;;;;;-0.12;66.44;101900.63;1788610;80;21090;-52
2022/12/03 03:08:16;;;;;;;7.00;3.52;;;;;;;-0.14;66.48;101914.67;1788931;80;21145;-52
2022/12/03 03:10:48;;;;;;;6.30;3.70;;;;;;;-0.15;66.66;101910.24;1768925;80;21158;-53
2022/12/03 03:13:18;;;;;;;6.67;3.17;;;;;;;-0.17;66.75;101910.81;1764970;81;21190;-53
2022/12/03 03:15:47;;;;;;;8.45;3.27;;;;;;;-0.19;66.90;101913.60;1775432;80;21112;-52
2022/12/03 03:18:17;;;;;;;7.42;3.52;;;;;;;-0.19;67.03;101917.64;1775147;81;21123;-51
2022/12/03 03:20:47;;;;;;;7.12;3.37;;;;;;;-0.18;67.24;101913.12;1764698;81;21115;-52
2022/12/03 03:23:22;;;;;;;8.08;2.92;;;;;;;-0.17;67.39;101906.78;1774933;81;21143;-52
2022/12/03 03:26:09;;;;;;;9.28;3.75;;;;;;;-0.16;67.29;101913.89;1763690;81;21808;-52
2022/12/03 03:28:41;;;;;;;;;;;;;;;-0.16;67.27;101913.89;1726031;81;21167;-51
2022/12/03 03:31:12;;;;;;;7.70;3.42;;;;;;;-0.17;67.34;101919.77;1774494;81;20154;-52
2022/12/03 03:33:42;;;;;;;6.75;3.10;;;;;;;-0.20;67.37;101917.25;1774393;80;21306;-52
2022/12/03 03:36:12;;;;;;;6.60;3.08;;;;;;;-0.19;67.45;101919.47;1764187;81;21111;-52
2022/12/03 03:38:41;;;;;;;8.73;3.22;;;;;;;-0.18;67.44;101916.69;1763807;81;21345;-52
2022/12/03 03:41:12;;;;;;;7.72;3.37;;;;;;;-0.17;67.46;101920.25;1764028;81;21230;-51
2022/12/03 03:43:42;;;;;;;9.00;3.15;;;;;;;-0.21;67.37;101924.08;1763763;81;21112;-52
2022/12/03 03:46:11;;;;;;;7.58;3.20;;;;;;;-0.23;67.58;101924.65;1764117;81;21251;-51
2022/12/03 03:48:42;;;;;;;7.00;3.17;;;;;;;-0.24;67.60;101921.56;1774436;81;21089;-53
2022/12/03 03:51:11;;;;;;;8.53;3.55;;;;;;;-0.26;67.68;101928.87;1764054;81;21140;-52
2022/12/03 03:53:44;;;;;;;6.60;3.33;;;;;;;-0.28;67.82;101930.31;1774787;81;21527;-52
2022/12/03 03:56:15;;;;;;;6.35;3.02;;;;;;;-0.25;67.83;101929.27;1774739;81;21143;-52
2022/12/03 03:58:44;;;;;;;7.47;3.55;;;;;;;-0.24;67.78;101931.00;1722668;81;21115;-52
2022/12/03 04:01:13;;;;;;;9.38;3.40;;;;;;;-0.27;67.85;101934.73;1774634;80;21151;-52
2022/12/03 04:03:44;;;;;;;8.25;3.58;;;;;;;-0.27;67.87;101938.78;1774651;81;21151;-51
2022/12/03 04:06:13;;;;;;;11.53;3.60;;;;;;;-0.26;67.90;101939.64;1774607;81;21132;-53
2022/12/03 04:08:44;;;;;;;7.85;3.50;;;;;;;-0.24;67.92;101935.91;1774709;81;21108;-51
2022/12/03 04:14:02;;;;;;;9.80;3.55;;;;;;;-0.25;68.27;101946.77;1786914;79;21146;-51
2022/12/03 04:16:31;;;;;;;10.43;3.60;;;;;;;-0.27;68.36;101952.24;1788241;80;21522;-52
2022/12/03 04:19:01;;;;;;;8.58;3.70;;;;;;;-0.26;68.50;101947.25;1788510;80;21083;-53
2022/12/03 04:24:18;;;;;;;8.33;3.77;;;;;;;-0.22;68.46;101944.77;1788497;80;21538;-51
2022/12/03 04:29:35;;;;;;;7.65;3.62;;;;;;;-0.26;68.51;101954.46;1788472;80;21117;-52
2022/12/03 04:37:40;;;;;;;;;;;;;;;-0.21;68.93;101953.23;1790953;80;21107;-53
2022/12/03 04:42:41;;;;;;;9.15;3.87;;;;;;;-0.22;69.17;101966.79;1739949;80;21142;-52
2022/12/03 04:45:11;;;;;;;9.95;4.65;;;;;;;-0.21;69.17;101965.83;1770869;80;21146;-52
2022/12/03 04:47:41;;;;;;;10.78;3.70;;;;;;;-0.21;68.96;101957.75;1788365;80;21127;-51
2022/12/03 04:50:11;;;;;;;9.98;3.80;;;;;;;-0.21;68.90;101966.70;1788253;80;21111;-51
2022/12/03 04:52:40;;;;;;;9.15;4.40;;;;;;;-0.17;68.96;101963.34;1788487;80;21103;-52
2022/12/03 04:55:09;;;;;;;11.08;4.00;;;;;;;-0.18;68.76;101968.34;1706939;84;21138;-51
2022/12/03 04:57:38;;;;;;;9.43;3.60;;;;;;;-0.23;69.06;101971.31;1707038;84;21154;-51
2022/12/03 05:00:11;;;;;;;8.48;3.40;;;;;;;-0.23;69.11;101977.17;1707295;84;21154;-52
2022/12/03 05:02:40;;;;;;;8.38;4.03;;;;;;;-0.21;69.02;101970.73;1592672;88;22165;-53
2022/12/03 05:05:10;;;;;;;9.85;3.42;;;;;;;-0.21;69.11;101980.17;1608816;89;21196;-53
2022/12/03 05:07:39;;;;;;;10.32;3.22;;;;;;;-0.22;69.16;101978.91;1608594;89;21165;-51
2022/12/03 05:10:10;;;;;;;8.80;3.65;;;;;;;-0.22;69.29;101971.70;1608899;89;21185;-52
2022/12/03 05:12:39;;;;;;;14.13;3.05;;;;;;;-0.22;69.35;101977.56;1600778;85;21601;-54
2022/12/03 05:15:09;;;;;;;9.90;3.15;;;;;;;-0.22;69.47;101981.12;1682330;85;21127;-52
2022/12/03 05:17:39;;;;;;;10.78;3.45;;;;;;;-0.19;69.43;101988.16;1682318;85;21153;-52
2022/12/03 05:22:58;;;;;;;7.65;3.17;;;;;;;-0.17;69.31;101994.33;1699597;83;21139;-51
2022/12/03 05:25:27;;;;;;;7.55;3.20;;;;;;;-0.16;69.39;101996.06;1707339;83;21190;-52
2022/12/03 05:27:57;;;;;;;9.23;3.60;;;;;;;-0.18;69.22;102001.54;1731135;83;21130;-52
2022/12/03 05:30:26;;;;;;;9.48;2.87;;;;;;;-0.17;69.20;102003.75;1749280;80;21593;-52
2022/12/03 05:32:55;;;;;;;7.28;3.20;;;;;;;-0.21;69.40;101994.98;1784879;80;21608;-52
2022/12/03 05:35:24;;;;;;;6.37;3.05;;;;;;;-0.23;69.27;102009.50;1765512;80;21095;-52
2022/12/03 05:37:54;;;;;;;9.43;3.85;;;;;;;-0.24;69.34;102013.14;1784987;80;21146;-50
2022/12/03 05:40:24;;;;;;;7.17;3.40;;;;;;;-0.24;69.46;102011.80;1765446;80;21569;-53
2022/12/03 05:42:53;;;;;;;8.90;3.27;;;;;;;-0.25;69.52;102010.06;1785098;80;21542;-53
2022/12/03 05:45:34;;;;;;;10.55;3.70;;;;;;;-0.22;69.58;102012.10;1784886;80;21138;-52
2022/12/03 05:48:05;;;;;;;13.00;3.70;;;;;;;-0.19;69.62;102015.96;1784825;80;22097;-51
2022/12/03 05:50:36;;;;;;;10.53;3.77;;;;;;;-0.18;69.80;102017.70;1765734;80;21111;-52
2022/12/03 05:53:18;;;;;;;7.62;3.33;;;;;;;-0.21;69.92;102011.14;1767735;80;21182;-52
2022/12/03 05:55:49;;;;;;;10.63;3.87;;;;;;;-0.24;70.11;102014.02;1785056;80;21126;-52
2022/12/03 05:58:19;;;;;;;11.38;3.60;;;;;;;-0.21;70.23;102019.22;1784880;80;21126;-52
2022/12/03 06:00:49;;;;;;;10.08;3.87;;;;;;;-0.20;70.33;102017.40;1784929;80;21225;-52
2022/12/03 06:03:20;;;;;;;7.37;3.72;;;;;;;-0.18;70.54;102023.56;1765532;80;21142;-54
2022/12/03 06:05:49;;;;;;;11.78;3.95;;;;;;;-0.20;70.52;102012.87;1701626;84;21174;-52
2022/12/03 06:08:19;;;;;;;9.78;3.33;;;;;;;-0.26;70.71;102024.48;1701639;84;21166;-53
2022/12/03 06:10:48;;;;;;;10.35;4.00;;;;;;;-0.25;70.78;102030.27;1701774;84;21303;-53
2022/12/03 06:13:17;;;;;;;9.08;3.62;;;;;;;-0.27;70.97;102032.17;1701263;84;21216;-52
2022/12/03 06:15:47;;;;;;;11.08;3.83;;;;;;;-0.26;71.12;102038.83;1699648;84;21315;-53
2022/12/03 06:18:17;;;;;;;6.95;3.40;;;;;;;-0.24;71.32;102034.70;1699459;84;21166;-52
2022/12/03 06:20:46;;;;;;;8.68;3.72;;;;;;;-0.22;71.38;102047.12;1699586;84;21151;-52
2022/12/03 06:23:15;;;;;;;10.03;3.98;;;;;;;-0.26;71.46;102037.48;1715654;80;21131;-51
2022/12/03 06:25:44;;;;;;;14.85;5.12;;;;;;;-0.28;71.84;102042.08;1782870;80;21163;-51
2022/12/03 06:28:14;;;;;;;11.05;4.30;;;;;;;-0.29;72.07;102048.91;1782878;80;21550;-52
2022/12/03 06:30:44;;;;;;;11.35;4.47;;;;;;;-0.29;72.24;102051.59;1782584;80;21111;-53
2022/12/03 06:33:16;;;;;;;9.30;4.50;;;;;;;-0.30;72.66;102051.20;1763317;80;21519;-53
2022/12/03 06:35:45;;;;;;;15.38;5.53;;;;;;;-0.29;72.84;102048.91;1763210;80;21155;-53
2022/12/03 06:38:15;;;;;;;12.85;4.90;;;;;;;-0.28;73.07;102051.98;1782822;79;21107;-53
2022/12/03 06:40:44;;;;;;;12.13;4.55;;;;;;;-0.30;73.29;102058.81;1763143;80;21157;-52
2022/12/03 06:43:13;;;;;;;15.15;7.45;;;;;;;-0.30;73.60;102062.84;1782876;80;21099;-50
2022/12/03 06:45:43;;;;;;;13.48;5.75;;;;;;;-0.31;73.64;102065.15;1782661;80;21206;-55
2022/12/03 06:48:14;;;;;;;11.88;5.35;;;;;;;-0.29;73.83;102063.72;1763776;80;21784;-52
2022/12/03 06:50:43;;;;;;;12.63;5.28;;;;;;;-0.24;74.06;102068.36;1782823;80;21126;-55
2022/12/03 06:53:12;;;;;;;16.25;4.87;;;;;;;-0.27;74.15;102076.62;1763193;80;21155;-52
2022/12/03 06:55:42;;;;;;;10.65;4.75;;;;;;;-0.27;74.36;102081.53;1782909;80;21531;-52
2022/12/03 06:58:12;;;;;;;16.95;5.90;;;;;;;-0.28;74.73;102076.23;1763156;80;21558;-51
2022/12/03 07:00:41;;;;;;;16.17;5.80;;;;;;;-0.29;74.84;102083.44;1782915;80;21119;-52
2022/12/03 07:03:11;;;;;;;12.50;5.22;;;;;;;-0.29;75.07;102081.22;1782802;80;21083;-52
2022/12/03 07:05:42;;;;;;;13.58;5.67;;;;;;;-0.30;75.59;102085.74;1783087;80;21507;-52
2022/12/03 07:08:11;;;;;;;11.57;6.00;;;;;;;-0.36;75.88;102084.27;1782858;80;21107;-52
2022/12/03 07:10:41;;;;;;;15.10;6.60;;;;;;;-0.40;76.12;102093.47;1763283;80;21174;-52
2022/12/03 07:13:11;;;;;;;15.93;7.10;;;;;;;-0.37;76.33;102081.66;1781249;80;21151;-52
2022/12/03 07:15:40;;;;;;;16.32;6.35;;;;;;;-0.33;76.50;102089.48;1774610;81;21143;-53
2022/12/03 07:18:11;;;;;;;17.25;6.20;;;;;;;-0.32;76.70;102080.92;1774495;79;21128;-52
2022/12/03 07:20:40;;;;;;;12.53;5.83;;;;;;;-0.34;76.90;102083.70;1774463;81;21131;-52
2022/12/03 07:23:10;;;;;;;13.18;5.00;;;;;;;-0.35;77.11;102090.04;1774872;81;21534;-51
2022/12/03 07:25:40;;;;;;;13.38;5.55;;;;;;;-0.34;77.10;102091.78;1774728;81;21147;-51
2022/12/03 07:28:10;;;;;;;16.87;6.45;;;;;;;-0.35;77.15;102095.43;1763892;81;21564;-53
2022/12/03 07:30:40;;;;;;;13.62;5.45;;;;;;;-0.37;77.25;102097.34;1774554;81;21092;-53
2022/12/03 07:33:10;;;;;;;15.30;5.75;;;;;;;-0.40;77.39;102096.16;1764114;81;22089;-53
2022/12/03 07:35:40;;;;;;;12.90;5.90;;;;;;;-0.42;77.49;102091.81;1774525;81;21079;-52
2022/12/03 07:38:09;;;;;;;12.80;5.70;;;;;;;-0.45;77.73;102092.86;1774555;81;21499;-52
2022/12/03 07:40:39;;;;;;;11.68;5.67;;;;;;;-0.49;77.79;102095.33;1774666;80;21135;-53
2022/12/03 07:43:09;;;;;;;12.88;5.80;;;;;;;-0.50;78.03;102109.75;1763872;81;21103;-52
2022/12/03 07:45:38;;;;;;;12.75;5.42;;;;;;;-0.49;78.14;102112.83;1774522;81;21135;-52
2022/12/03 07:48:07;;;;;;;13.55;5.58;;;;;;;-0.46;78.23;102108.63;1774611;81;21162;-52
2022/12/03 07:50:35;;;;;;;10.90;5.28;;;;;;;-0.46;78.24;102109.97;1774752;81;21108;-52
2022/12/03 07:53:05;;;;;;;10.88;5.03;;;;;;;-0.46;78.32;102107.28;1774345;81;21171;-48
2022/12/03 07:55:34;;;;;;;11.80;5.62;;;;;;;-0.45;78.44;102105.45;1774350;81;21538;-48
2022/12/03 07:58:04;;;;;;;14.05;5.72;;;;;;;-0.43;78.32;102114.31;1774406;81;21131;-49
2022/12/03 08:00:34;;;;;;;14.90;6.58;;;;;;;-0.46;78.22;102111.80;1763698;81;21566;-49
2022/12/03 08:03:03;;;;;;;10.82;5.22;;;;;;;-0.44;78.43;102115.27;1774344;81;21127;-50
2022/12/03 08:05:32;;;;;;;12.98;5.80;;;;;;;-0.43;78.56;102124.61;1774544;81;21147;-50
2022/12/03 08:08:02;;;;;;;16.00;6.10;;;;;;;-0.40;78.52;102115.48;1774423;81;21538;-49
2022/12/03 08:10:31;;;;;;;16.32;5.42;;;;;;;-0.38;78.54;102126.56;1774374;81;21115;-49
2022/12/03 08:13:00;;;;;;;13.13;5.67;;;;;;;-0.35;78.51;102124.18;1774577;80;21104;-49
2022/12/03 08:15:30;;;;;;;17.70;6.42;;;;;;;-0.35;78.34;102130.44;1763608;81;21123;-50
2022/12/03 08:18:06;;;;;;;13.48;6.08;;;;;;;-0.37;78.33;102130.13;1774111;80;21154;-49
2022/12/03 08:20:38;;;;;;;13.75;6.67;;;;;;;-0.36;78.25;102131.39;1764157;81;21512;-49
2022/12/03 08:23:15;;;;;;;15.78;6.65;;;;;;;-0.36;78.33;102131.39;1763544;81;21133;-49
2022/12/03 08:25:45;;;;;;;15.75;5.62;;;;;;;-0.34;78.39;102131.31;1774454;80;21171;-50
2022/12/03 08:28:20;;;;;;;15.65;6.00;;;;;;;-0.32;78.36;102130.27;1774669;81;21124;-50
2022/12/03 08:31:11;;;;;;;15.98;5.85;;;;;;;-0.29;78.31;102136.44;1774655;81;21128;-50
2022/12/03 08:33:40;;;;;;;15.18;6.40;;;;;;;-0.26;78.38;102127.70;1774787;81;21534;-50
2022/12/03 08:36:28;;;;;;;16.37;5.97;;;;;;;-0.23;78.32;102133.41;1774674;81;21088;-51
2022/12/03 08:39:26;;;;;;;12.75;5.72;;;;;;;-0.23;78.18;102128.02;1737831;82;21163;-50
2022/12/03 08:45:31;;;;;;;15.23;6.30;;;;;;;-0.32;77.91;102134.31;1774322;81;21147;-51
2022/12/03 10:20:20;;;;;;;13.63;5.27;;;;;;;-1.14;80.09;102162.08;1820286;77;25291;-50
2022/12/03 10:22:51;;;;;;;19.25;7.78;;;;;;;-1.19;80.04;102159.63;1746985;77;21122;-51
2022/12/03 10:25:21;;;;;;;21.12;8.23;;;;;;;-1.13;80.18;102154.41;1720652;82;21131;-51
2022/12/03 10:28:01;;;;;;;19.00;7.50;;;;;;;-1.09;80.06;102155.51;1720624;83;21135;-53
2022/12/03 10:30:31;;;;;;;18.75;7.05;;;;;;;-1.03;79.71;102149.81;1708668;83;21546;-53
2022/12/03 10:33:01;;;;;;;21.20;7.53;;;;;;;-0.98;79.49;102150.91;1702467;83;21144;-53
2022/12/03 10:35:42;;;;;;;18.85;7.58;;;;;;;-0.93;79.23;102156.05;1658422;84;21152;-53
2022/12/03 10:38:21;;;;;;;19.60;7.10;;;;;;;-0.92;78.77;102161.35;1702535;83;21135;-50
2022/12/03 10:40:50;;;;;;;14.63;6.83;;;;;;;-0.87;78.52;102163.32;1702503;83;21567;-51
2022/12/03 10:43:26;;;;;;;14.10;6.22;;;;;;;-0.81;78.31;102158.96;1702356;84;21633;-52
2022/12/03 10:46:12;;;;;;;15.25;6.45;;;;;;;-0.79;77.62;102153.50;1702430;84;21187;-52
2022/12/03 10:48:41;;;;;;;17.07;6.55;;;;;;;-0.78;77.35;102161.48;1702259;84;21120;-52
2022/12/03 10:51:19;;;;;;;13.95;5.70;;;;;;;-0.77;77.07;102157.84;1702401;84;21135;-52
2022/12/03 10:53:50;;;;;;;14.87;6.55;;;;;;;-0.80;76.57;102164.73;1702370;83;21132;-52
2022/12/03 10:56:23;;;;;;;24.10;5.97;;;;;;;-0.85;76.58;102157.86;1702397;83;21139;-52
2022/12/03 10:58:52;;;;;;;15.28;6.15;;;;;;;-0.86;76.51;102162.37;1702256;84;21183;-52
2022/12/03 11:01:24;;;;;;;22.35;6.25;;;;;;;-0.83;76.54;102161.34;1702512;83;21179;-51
2022/12/03 11:03:53;;;;;;;13.60;6.00;;;;;;;-0.82;76.65;102167.11;1702374;83;21136;-52
2022/12/03 11:06:23;;;;;;;15.93;6.58;;;;;;;-0.78;76.68;102167.34;1702297;84;21133;-60
2022/12/03 11:08:53;;;;;;;15.55;6.80;;;;;;;-0.74;76.62;102171.14;1702410;84;21578;-65
2022/12/03 11:11:29;;;;;;;19.92;8.33;;;;;;;-0.71;76.48;102172.32;1702247;84;21290;-62
2022/12/03 11:14:05;;;;;;;13.58;6.45;;;;;;;-0.69;76.51;102179.84;1702582;84;21168;-58
2022/12/03 11:16:46;;;;;;;13.25;6.35;;;;;;;-0.70;76.07;102182.61;1702469;84;21135;-60
2022/12/03 11:19:25;;;;;;;13.20;5.67;;;;;;;-0.74;75.86;102181.03;1702371;84;21669;-60
2022/12/03 11:22:10;;;;;;;13.48;5.58;;;;;;;-0.78;75.97;102182.15;1689667;84;21170;-61
2022/12/03 11:24:40;;;;;;;13.55;5.72;;;;;;;-0.80;76.05;102182.70;1703088;83;21151;-61
2022/12/03 11:27:17;;;;;;;17.55;6.35;;;;;;;-0.77;76.25;102182.55;1702273;84;21211;-59
2022/12/03 11:30:00;;;;;;;11.43;4.62;;;;;;;-0.75;76.35;102192.75;1702329;84;21238;-61
2022/12/03 11:32:48;;;;;;;16.93;6.22;;;;;;;-0.70;76.53;102192.03;1701963;84;21210;-61
2022/12/03 11:35:28;;;;;;;10.98;4.65;;;;;;;-0.64;76.44;102189.05;1702053;84;21139;-60
2022/12/03 11:38:19;;;;;;;14.00;6.05;;;;;;;-0.66;76.19;102185.06;1680551;84;21215;-61
2022/12/03 11:41:13;;;;;;;11.55;5.22;;;;;;;-0.66;76.05;102176.11;1702074;84;21175;-62
2022/12/03 11:43:56;;;;;;;10.90;4.80;;;;;;;-0.64;75.63;102194.44;1701562;84;21175;-61
2022/12/03 11:46:43;;;;;;;15.23;6.03;;;;;;;-0.69;73.91;102184.35;1680382;84;21591;-62
2022/12/03 11:49:33;;;;;;;10.73;5.07;;;;;;;-0.77;73.58;102185.23;1623480;87;21162;-59
2022/12/03 11:52:19;;;;;;;12.13;4.80;;;;;;;-0.84;73.51;102194.59;1614962;88;21186;-60
2022/12/03 11:54:58;;;;;;;13.50;5.40;;;;;;;-0.88;73.09;102194.35;1563122;88;21127;-61
2022/12/03 11:57:33;;;;;;;16.17;5.58;;;;;;;-0.88;73.36;102199.73;1600875;88;21253;-61
2022/12/03 12:00:22;;;;;;;15.53;5.62;;;;;;;-0.85;73.03;102203.61;1614275;88;21171;-61
2022/12/03 12:02:53;;;;;;;14.13;5.17;;;;;;;-0.83;73.09;102188.25;1609964;88;21171;-60
2022/12/03 12:05:31;;;;;;;10.00;4.95;;;;;;;-0.82;73.20;102191.34;1509710;94;21183;-60
2022/12/03 12:08:01;;;;;;;10.28;4.42;;;;;;;-0.84;73.25;102201.31;1566137;89;21167;-61
2022/12/03 12:10:44;;;;;;;10.32;5.15;;;;;;;-0.86;73.52;102204.08;1557860;91;21203;-61
2022/12/03 12:13:36;;;;;;;13.50;5.08;;;;;;;-0.86;73.84;102209.94;1563096;89;21198;-61
2022/12/03 12:16:07;;;;;;;11.50;5.20;;;;;;;-0.84;74.40;102217.45;1590637;89;21218;-61
2022/12/03 12:18:49;;;;;;;10.28;5.00;;;;;;;-0.85;75.35;102215.72;1584534;90;21314;-59
2022/12/03 12:21:46;;;;;;;14.45;5.85;;;;;;;-0.86;75.61;102215.32;1580329;89;21159;-58
2022/12/03 12:24:50;;;;;;;12.80;5.00;;;;;;;-0.92;76.00;102209.78;1684374;84;21143;-60
2022/12/03 12:27:20;;;;;;;10.93;5.12;;;;;;;-0.92;76.42;102208.91;1620671;88;21655;-60
2022/12/03 12:29:58;;;;;;;17.00;6.10;;;;;;;-0.95;76.99;102212.63;1621609;88;21147;-60
2022/12/03 12:32:31;;;;;;;12.90;5.40;;;;;;;-0.93;77.49;102219.28;1621547;88;21341;-60
2022/12/03 12:35:12;;;;;;;13.83;6.10;;;;;;;-0.95;77.89;102216.67;1621367;88;21190;-61
2022/12/03 12:38:10;;;;;;;10.90;4.97;;;;;;;-0.98;78.20;102218.17;1621394;88;21807;-61
2022/12/03 12:40:44;;;;;;;12.78;4.80;;;;;;;-1.02;78.29;102220.63;1621821;88;21211;-59
2022/12/03 12:43:32;;;;;;;12.20;5.03;;;;;;;-1.10;78.38;102228.22;1621399;88;21612;-61
2022/12/03 12:46:10;;;;;;;10.10;4.95;;;;;;;-1.15;78.86;102226.23;1643689;84;21217;-61
2022/12/03 12:48:41;;;;;;;14.33;5.42;;;;;;;-1.13;79.27;102235.97;1699195;84;21167;-61
2022/12/03 12:51:15;;;;;;;15.18;6.25;;;;;;;-1.10;79.37;102230.44;1702151;84;21160;-58
2022/12/03 12:53:45;;;;;;;17.85;7.12;;;;;;;-1.08;79.21;102231.23;1702004;84;21283;-61
2022/12/03 12:56:33;;;;;;;13.53;5.65;;;;;;;-1.14;79.15;102233.36;1702163;84;21574;-59
2022/12/03 12:59:15;;;;;;;13.70;5.17;;;;;;;-1.17;79.45;102248.30;1702079;84;21214;-60
2022/12/03 13:01:47;;;;;;;11.70;5.05;;;;;;;-1.17;79.87;102251.87;1702173;84;21179;-60
2022/12/03 13:04:20;;;;;;;13.95;4.92;;;;;;;-1.13;80.13;102258.83;1680737;84;21686;-60
2022/12/03 13:06:52;;;;;;;13.53;6.10;;;;;;;-1.16;80.26;102253.61;1680720;84;21135;-60
2022/12/03 13:09:24;;;;;;;15.50;5.40;;;;;;;-1.14;80.46;102258.44;1701931;84;21132;-59
2022/12/03 13:12:02;;;;;;;12.18;4.87;;;;;;;-1.19;81.09;102264.99;1701986;84;21108;-57
2022/12/03 13:14:35;;;;;;;13.22;5.70;;;;;;;-1.23;81.45;102265.62;1702321;84;21139;-60
2022/12/03 13:17:24;;;;;;;10.18;4.50;;;;;;;-1.26;81.60;102260.39;1702035;84;21183;-59
2022/12/03 13:19:53;;;;;;;14.10;4.67;;;;;;;-1.27;81.40;102257.78;1680536;84;21191;-60
2022/12/03 13:22:24;;;;;;;10.95;5.10;;;;;;;-1.29;81.44;102268.61;1700833;84;21147;-60
2022/12/03 13:24:58;;;;;;;11.00;4.75;;;;;;;-1.32;81.53;102274.11;1701708;84;21611;-61
2022/12/03 13:27:34;;;;;;;14.35;4.87;;;;;;;-1.31;81.77;102273.16;1680261;84;21128;-61
2022/12/03 13:30:10;;;;;;;12.00;4.85;;;;;;;-1.31;82.02;102279.88;1702143;84;21171;-60
2022/12/03 13:32:41;;;;;;;7.27;3.43;;;;;;;-1.29;82.31;102273.99;1702262;83;21583;-60
2022/12/03 13:35:21;;;;;;;7.55;4.40;;;;;;;-1.29;82.58;102283.41;1702090;84;21560;-60
2022/12/03 13:37:50;;;;;;;13.95;4.53;;;;;;;-1.32;82.77;102272.77;1702102;84;21159;-59
2022/12/03 13:40:29;;;;;;;11.18;5.17;;;;;;;-1.36;82.91;102275.20;1680407;84;21601;-59
2022/12/03 13:42:59;;;;;;;12.93;5.25;;;;;;;-1.36;83.11;102277.42;1701987;84;21155;-59
2022/12/03 13:45:38;;;;;;;11.48;4.92;;;;;;;-1.39;83.23;102280.73;1702082;84;21132;-60
2022/12/03 13:48:23;;;;;;;9.93;4.83;;;;;;;-1.40;83.41;102284.37;1702208;84;21191;-60
2022/12/03 13:50:53;;;;;;;10.88;5.20;;;;;;;-1.42;83.54;102277.72;1622102;87;21183;-59
2022/12/03 13:53:49;;;;;;;9.53;4.80;;;;;;;-1.41;83.79;102280.81;1621338;88;21162;-59
2022/12/03 13:56:52;;;;;;;10.25;4.97;;;;;;;-1.43;83.86;102280.48;1621888;88;21175;-58
2022/12/03 13:59:21;;;;;;;10.88;4.90;;;;;;;-1.47;84.15;102288.30;1621585;88;21219;-62
2022/12/03 14:01:52;;;;;;;12.75;5.87;;;;;;;-1.46;84.43;102290.05;1599979;88;21262;-60
2022/12/03 14:04:22;;;;;;;14.78;5.65;;;;;;;-1.46;84.72;102288.70;1621603;88;21176;-60
2022/12/03 14:06:52;;;;;;;12.73;5.58;;;;;;;-1.43;85.12;102300.18;1621726;88;21163;-60
2022/12/03 14:09:22;;;;;;;12.43;6.70;;;;;;;-1.42;85.18;102295.20;1672686;84;21203;-65
2022/12/03 14:14:44;;;;;;;12.55;5.75;;;;;;;-1.43;85.41;102300.18;1701946;84;21630;-60
2022/12/03 14:17:15;;;;;;;14.83;6.33;;;;;;;-1.43;85.69;102298.83;1702080;84;21615;-60
2022/12/03 14:19:48;;;;;;;10.40;5.17;;;;;;;-1.39;86.36;102295.05;1701975;84;21202;-60
2022/12/03 14:22:22;;;;;;;11.40;5.60;;;;;;;-1.36;86.04;102301.63;1702003;84;21139;-62
2022/12/03 14:24:51;;;;;;;13.28;5.45;;;;;;;-1.37;85.99;102297.66;1702124;84;21547;-59
2022/12/03 14:27:21;;;;;;;11.73;5.37;;;;;;;-1.36;86.09;102298.06;1702092;84;21672;-63
2022/12/03 14:29:50;;;;;;;11.05;5.45;;;;;;;-1.35;85.91;102302.49;1701962;84;21309;-59
2022/12/03 14:32:35;;;;;;;14.80;6.45;;;;;;;-1.38;85.87;102295.92;1680269;84;21178;-61
2022/12/03 14:35:09;;;;;;;14.63;5.95;;;;;;;-1.37;86.11;102304.39;1702237;84;21123;-63
2022/12/03 14:37:44;;;;;;;12.95;5.53;;;;;;;-1.35;86.24;102291.73;1702145;84;21156;-60